Time;durP1;ratioP1;P1;durP2;ratioP2;P2;SDS_P1;SDS_P2;PMS_P1;PMS_P2;Temp;Humidity;BMP_temperature;BMP_pressure;BME280_temperature;BME280_humidity;BME280_pressure;Samples;Min_cycle;Max_cycle;Signal;HPM_P1;HPM_P2
2021/12/29 00:01:52;;;;;;;8.37;1.70;;;8.00;99.90;;;;;;5014972;28;20198;-88
2021/12/29 00:04:18;;;;;;;8.63;2.10;;;8.00;99.90;;;;;;5015375;28;20290;-87
2021/12/29 00:06:44;;;;;;;7.50;1.80;;;8.00;99.90;;;;;;5031780;28;20194;-88
2021/12/29 00:09:10;;;;;;;6.60;1.63;;;8.00;99.90;;;;;;5031608;28;20210;-88
2021/12/29 00:11:38;;;;;;;7.60;1.57;;;8.10;99.90;;;;;;5014940;28;20241;-87
2021/12/29 00:14:06;;;;;;;7.33;1.80;;;8.00;99.90;;;;;;5014577;28;20198;-87
2021/12/29 00:16:35;;;;;;;5.60;1.00;;;8.00;99.90;;;;;;5014964;28;20266;-87
2021/12/29 00:19:02;;;;;;;9.77;2.23;;;8.00;99.90;;;;;;5015167;28;20193;-88
2021/12/29 00:21:29;;;;;;;8.30;1.83;;;8.00;99.90;;;;;;5015321;28;20195;-88
2021/12/29 00:23:59;;;;;;;7.63;2.07;;;8.00;99.90;;;;;;5015284;28;20179;-88
2021/12/29 00:26:26;;;;;;;9.33;1.80;;;8.00;99.90;;;;;;5015389;28;20229;-87
2021/12/29 00:28:53;;;;;;;8.40;1.93;;;8.00;99.90;;;;;;5015405;28;20209;-88
2021/12/29 00:31:19;;;;;;;6.53;1.50;;;8.00;99.90;;;;;;5031409;28;20210;-88
2021/12/29 00:34:03;;;;;;;4.93;1.37;;;8.00;99.90;;;;;;5031899;28;20225;-87
2021/12/29 00:36:48;;;;;;;6.87;1.60;;;8.00;99.90;;;;;;5032166;28;20278;-87
2021/12/29 00:39:37;;;;;;;7.30;1.77;;;7.90;99.90;;;;;;5031347;28;20186;-88
2021/12/29 00:42:25;;;;;;;8.53;1.83;;;7.90;99.90;;;;;;5032041;28;20217;-87
2021/12/29 00:45:10;;;;;;;7.63;2.13;;;7.90;99.90;;;;;;5031756;28;20169;-87
2021/12/29 00:47:37;;;;;;;4.30;1.37;;;7.90;99.90;;;;;;5014284;28;20236;-87
2021/12/29 00:50:06;;;;;;;6.77;1.47;;;7.90;99.90;;;;;;5014487;28;20190;-87
2021/12/29 00:52:32;;;;;;;10.57;2.10;;;7.90;99.90;;;;;;5014628;28;20202;-87
2021/12/29 00:55:00;;;;;;;7.57;1.80;;;7.80;99.90;;;;;;5014378;28;20213;-87
2021/12/29 00:57:26;;;;;;;6.53;1.60;;;7.80;99.90;;;;;;5014363;28;20187;-87
2021/12/29 00:59:52;;;;;;;7.33;1.50;;;7.80;99.90;;;;;;5005105;28;20198;-87
2021/12/29 01:02:18;;;;;;;6.70;1.60;;;7.80;99.90;;;;;;4994807;28;20199;-88
2021/12/29 01:04:44;;;;;;;5.37;1.33;;;7.80;99.90;;;;;;5010853;28;20186;-87
2021/12/29 01:07:10;;;;;;;6.47;1.60;;;7.80;99.90;;;;;;4994699;28;20183;-88
2021/12/29 01:09:36;;;;;;;5.73;1.53;;;7.80;99.90;;;;;;4994692;28;20193;-87
2021/12/29 01:12:02;;;;;;;5.67;1.50;;;7.80;99.90;;;;;;5010752;28;20199;-88
2021/12/29 01:14:30;;;;;;;5.17;1.53;;;7.80;99.90;;;;;;4994616;28;20730;-87
2021/12/29 01:16:57;;;;;;;8.30;2.17;;;7.90;99.90;;;;;;4994318;28;20705;-88
2021/12/29 01:19:27;;;;;;;4.80;1.37;;;7.90;99.90;;;;;;5010382;28;20274;-87
2021/12/29 01:21:57;;;;;;;5.00;1.30;;;7.90;99.90;;;;;;4994486;28;20702;-87
2021/12/29 01:24:25;;;;;;;7.00;1.83;;;7.90;99.90;;;;;;4994311;28;20210;-88
2021/12/29 01:26:52;;;;;;;5.00;1.10;;;7.90;99.90;;;;;;4993577;28;20207;-88
2021/12/29 01:29:18;;;;;;;4.17;0.90;;;7.90;99.90;;;;;;5015090;28;20194;-87
2021/12/29 01:31:44;;;;;;;6.90;1.00;;;8.00;99.90;;;;;;5013868;28;20221;-87
2021/12/29 01:34:11;;;;;;;3.60;1.13;;;8.00;99.90;;;;;;5013936;28;20664;-87
2021/12/29 01:36:38;;;;;;;4.03;0.93;;;8.00;99.90;;;;;;5013720;28;20264;-87
2021/12/29 01:39:08;;;;;;;3.80;1.03;;;8.00;99.90;;;;;;5013611;28;20178;-87
2021/12/29 01:41:34;;;;;;;3.10;1.10;;;8.00;99.90;;;;;;5013989;28;20194;-87
2021/12/29 01:44:01;;;;;;;5.20;1.10;;;7.90;99.90;;;;;;5013679;28;20320;-87
2021/12/29 01:46:27;;;;;;;2.00;0.80;;;7.90;99.90;;;;;;5013911;28;20545;-87
2021/12/29 01:48:53;;;;;;;5.60;1.30;;;7.90;99.90;;;;;;5013894;28;20191;-87
2021/12/29 01:51:20;;;;;;;4.17;1.10;;;7.90;99.90;;;;;;5013542;28;20206;-88
2021/12/29 01:54:00;;;;;;;3.00;1.00;;;7.90;99.90;;;;;;5013759;28;20187;-87
2021/12/29 01:56:26;;;;;;;4.37;1.17;;;7.90;99.90;;;;;;5013760;28;20229;-88
2021/12/29 01:58:52;;;;;;;5.77;1.23;;;7.90;99.90;;;;;;5030075;28;20179;-87
2021/12/29 02:01:19;;;;;;;5.50;1.43;;;7.90;99.90;;;;;;5013594;28;20249;-87
2021/12/29 02:03:45;;;;;;;3.93;1.03;;;7.90;99.90;;;;;;5013720;28;20189;-88
2021/12/29 02:06:11;;;;;;;5.13;1.30;;;7.90;99.90;;;;;;5013877;28;20281;-87
2021/12/29 02:08:37;;;;;;;5.70;1.87;;;7.90;99.90;;;;;;5030056;28;20205;-87
2021/12/29 02:11:06;;;;;;;5.43;1.53;;;7.90;99.90;;;;;;5013348;28;20198;-87
2021/12/29 02:13:32;;;;;;;4.27;1.70;;;7.80;99.90;;;;;;5013703;28;20187;-87
2021/12/29 02:15:59;;;;;;;3.57;1.00;;;7.80;99.90;;;;;;5013658;28;20214;-87
2021/12/29 02:18:25;;;;;;;3.17;1.20;;;7.80;99.90;;;;;;5013228;28;20174;-87
2021/12/29 02:20:54;;;;;;;3.43;1.03;;;7.90;99.90;;;;;;5013603;28;20195;-88
2021/12/29 02:23:35;;;;;;;2.93;1.03;;;7.80;99.90;;;;;;5013508;28;20238;-87
2021/12/29 02:26:02;;;;;;;5.63;1.23;;;7.80;99.90;;;;;;5030256;28;20214;-87
2021/12/29 02:28:32;;;;;;;6.40;1.20;;;7.80;99.90;;;;;;5017342;28;20183;-88
2021/12/29 02:30:59;;;;;;;6.00;1.20;;;7.80;99.90;;;;;;5013747;28;20218;-88
2021/12/29 02:33:26;;;;;;;3.73;1.30;;;7.80;99.90;;;;;;5013345;28;20186;-87
2021/12/29 02:35:53;;;;;;;6.67;1.33;;;7.80;99.90;;;;;;5013244;28;20203;-88
2021/12/29 02:38:35;;;;;;;3.97;1.00;;;7.80;99.90;;;;;;5016157;28;20202;-87
2021/12/29 02:41:04;;;;;;;4.53;1.33;;;7.80;99.90;;;;;;5017153;28;20301;-87
2021/12/29 02:43:32;;;;;;;5.87;1.53;;;7.90;99.90;;;;;;5016971;28;20183;-88
2021/12/29 02:45:59;;;;;;;5.27;1.53;;;7.80;99.90;;;;;;5016897;28;20183;-87
2021/12/29 02:48:27;;;;;;;6.03;1.47;;;7.90;99.90;;;;;;5016553;28;20209;-87
2021/12/29 02:50:56;;;;;;;5.10;1.17;;;7.90;99.90;;;;;;5016530;28;20241;-87
2021/12/29 02:53:24;;;;;;;5.03;1.20;;;7.90;99.90;;;;;;5016573;28;20183;-88
2021/12/29 02:55:55;;;;;;;6.17;1.10;;;7.90;99.90;;;;;;5016396;28;20216;-87
2021/12/29 02:58:23;;;;;;;3.33;1.27;;;7.90;99.90;;;;;;5016359;28;20179;-87
2021/12/29 03:00:50;;;;;;;4.83;1.10;;;7.90;99.90;;;;;;5016422;28;20300;-87
2021/12/29 03:03:18;;;;;;;6.50;1.43;;;7.90;99.90;;;;;;5032829;28;20182;-87
2021/12/29 03:05:45;;;;;;;5.27;1.20;;;7.90;99.90;;;;;;5016460;28;20209;-88
2021/12/29 03:08:12;;;;;;;8.63;1.30;;;7.90;99.90;;;;;;5016289;28;20187;-86
2021/12/29 03:10:38;;;;;;;6.00;1.47;;;7.90;99.90;;;;;;5016411;28;20209;-87
2021/12/29 03:13:04;;;;;;;5.07;1.70;;;7.90;99.90;;;;;;5016397;28;20191;-87
2021/12/29 03:15:31;;;;;;;3.13;1.40;;;7.90;99.90;;;;;;5016198;28;20263;-87
2021/12/29 03:17:56;;;;;;;3.47;1.10;;;7.90;99.90;;;;;;5016423;28;20266;-87
2021/12/29 03:20:22;;;;;;;4.87;1.30;;;7.90;99.90;;;;;;5016391;28;20269;-88
2021/12/29 03:22:48;;;;;;;4.60;1.10;;;7.90;99.90;;;;;;5016046;28;20178;-87
2021/12/29 03:25:14;;;;;;;6.80;1.77;;;8.00;99.90;;;;;;5016136;28;20229;-87
2021/12/29 03:27:40;;;;;;;5.97;1.20;;;8.00;99.90;;;;;;5016023;28;20187;-87
2021/12/29 03:30:06;;;;;;;3.70;1.00;;;8.00;99.90;;;;;;5012705;28;20187;-87
2021/12/29 03:32:42;;;;;;;4.83;1.40;;;8.00;99.90;;;;;;4996180;28;20222;-87
2021/12/29 03:35:09;;;;;;;3.00;1.03;;;8.00;99.90;;;;;;5012812;28;20179;-87
2021/12/29 03:37:36;;;;;;;3.93;1.30;;;8.00;99.90;;;;;;5012731;28;20183;-87
2021/12/29 03:40:04;;;;;;;2.97;1.23;;;8.00;99.90;;;;;;5012850;28;20179;-87
2021/12/29 03:42:30;;;;;;;4.13;1.13;;;8.00;99.90;;;;;;5012660;28;20683;-87
2021/12/29 03:44:56;;;;;;;3.83;1.20;;;8.00;99.90;;;;;;5012622;28;20214;-88
2021/12/29 03:47:22;;;;;;;3.63;0.97;;;8.00;99.90;;;;;;5012806;28;20215;-87
2021/12/29 03:49:48;;;;;;;5.53;1.20;;;8.00;99.90;;;;;;5011673;28;20277;-87
2021/12/29 03:52:14;;;;;;;3.97;1.13;;;8.00;99.90;;;;;;5012911;28;20200;-87
2021/12/29 03:54:40;;;;;;;5.23;1.10;;;8.00;99.90;;;;;;5012925;28;20175;-87
2021/12/29 03:57:06;;;;;;;4.67;1.20;;;8.00;99.90;;;;;;5013057;28;20276;-87
2021/12/29 03:59:32;;;;;;;4.57;1.20;;;8.00;99.90;;;;;;5016100;28;20187;-87
2021/12/29 04:01:59;;;;;;;3.10;1.20;;;7.90;99.90;;;;;;5015752;28;20262;-87
2021/12/29 04:04:24;;;;;;;3.90;1.27;;;7.90;99.90;;;;;;5015382;28;20213;-87
2021/12/29 04:06:50;;;;;;;3.57;1.00;;;7.90;99.90;;;;;;5015274;28;20273;-87
2021/12/29 04:09:16;;;;;;;4.03;0.97;;;7.90;99.90;;;;;;5015093;28;20186;-87
2021/12/29 04:11:42;;;;;;;3.63;1.10;;;7.90;99.90;;;;;;5031881;28;20293;-87
2021/12/29 04:14:08;;;;;;;5.80;1.13;;;8.00;99.90;;;;;;5015040;28;20282;-87
2021/12/29 04:16:37;;;;;;;2.83;1.40;;;8.00;99.90;;;;;;5015192;28;20222;-87
2021/12/29 04:19:14;;;;;;;3.37;1.27;;;7.90;99.90;;;;;;5015017;28;20174;-87
2021/12/29 04:21:43;;;;;;;3.37;1.27;;;8.00;99.90;;;;;;5015060;28;20199;-87
2021/12/29 04:24:09;;;;;;;6.13;0.90;;;8.00;99.90;;;;;;5015146;28;20186;-87
2021/12/29 04:26:37;;;;;;;3.63;0.97;;;8.00;99.90;;;;;;5031259;28;20179;-87
2021/12/29 04:29:05;;;;;;;2.57;1.07;;;8.00;99.90;;;;;;5014752;28;20183;-87
2021/12/29 04:31:30;;;;;;;2.63;0.90;;;8.00;99.90;;;;;;5013185;28;20202;-87
2021/12/29 04:33:56;;;;;;;3.37;1.20;;;8.10;99.90;;;;;;5030675;28;20229;-87
2021/12/29 04:36:25;;;;;;;2.77;1.10;;;8.10;99.90;;;;;;5030024;28;20213;-87
2021/12/29 04:38:53;;;;;;;3.27;1.10;;;8.10;99.90;;;;;;5030134;28;20678;-87
2021/12/29 04:41:20;;;;;;;6.67;1.40;;;8.10;99.90;;;;;;5031281;28;20202;-87
2021/12/29 04:43:46;;;;;;;2.27;1.00;;;8.10;99.90;;;;;;5031018;28;20182;-87
2021/12/29 04:46:17;;;;;;;2.07;0.80;;;8.10;99.90;;;;;;5031248;28;20179;-87
2021/12/29 04:49:00;;;;;;;4.17;1.07;;;8.10;99.90;;;;;;5031086;28;20183;-87
2021/12/29 04:51:34;;;;;;;3.43;0.83;;;8.10;99.90;;;;;;5030799;28;20203;-87
2021/12/29 04:54:01;;;;;;;4.10;0.97;;;8.10;99.90;;;;;;5031134;28;20209;-87
2021/12/29 04:56:27;;;;;;;2.97;1.20;;;8.10;99.90;;;;;;5030843;28;20218;-87
2021/12/29 04:58:53;;;;;;;6.50;1.50;;;8.10;99.90;;;;;;5029234;28;20186;-87
2021/12/29 05:01:19;;;;;;;3.33;0.97;;;8.10;99.90;;;;;;4993955;28;20211;-87
2021/12/29 05:03:45;;;;;;;6.80;1.27;;;8.10;99.90;;;;;;4994627;28;20266;-87
2021/12/29 05:08:37;;;;;;;5.03;1.60;;;8.10;99.90;;;;;;5012252;28;20278;-87
2021/12/29 05:11:06;;;;;;;3.00;1.20;;;8.10;99.90;;;;;;4995866;28;20302;-87
2021/12/29 05:13:35;;;;;;;4.07;1.30;;;8.10;99.90;;;;;;4995706;28;20191;-87
2021/12/29 05:16:01;;;;;;;4.40;1.40;;;8.10;99.90;;;;;;4994679;28;20203;-87
2021/12/29 05:18:30;;;;;;;3.30;0.87;;;8.10;99.90;;;;;;4994543;28;20249;-87
2021/12/29 05:20:57;;;;;;;2.60;1.00;;;8.10;99.90;;;;;;4994563;28;20206;-87
2021/12/29 05:23:24;;;;;;;3.17;1.10;;;8.10;99.90;;;;;;4994568;28;20278;-87
2021/12/29 05:25:51;;;;;;;4.03;1.40;;;8.10;99.90;;;;;;4994326;28;20191;-87
2021/12/29 05:28:17;;;;;;;5.03;1.03;;;8.10;99.90;;;;;;4994226;28;20183;-87
2021/12/29 05:30:44;;;;;;;2.97;1.10;;;8.00;99.90;;;;;;5010333;28;20571;-87
2021/12/29 05:33:10;;;;;;;3.77;0.90;;;8.00;99.90;;;;;;5014527;28;20189;-87
2021/12/29 05:35:36;;;;;;;3.60;1.23;;;8.00;99.90;;;;;;5014656;28;20210;-87
2021/12/29 05:38:03;;;;;;;2.13;0.90;;;8.00;99.90;;;;;;5015257;28;20212;-87
2021/12/29 05:40:29;;;;;;;4.93;1.10;;;8.00;99.90;;;;;;5015101;28;20178;-87
2021/12/29 05:42:56;;;;;;;3.43;1.00;;;8.00;99.90;;;;;;5014444;28;20171;-87
2021/12/29 05:45:23;;;;;;;2.83;1.03;;;8.00;99.90;;;;;;5013921;28;20183;-87
2021/12/29 05:47:49;;;;;;;4.93;1.43;;;7.90;99.90;;;;;;5036129;28;20224;-87
2021/12/29 05:50:19;;;;;;;3.17;1.17;;;7.90;99.90;;;;;;5014542;28;20183;-88
2021/12/29 05:52:46;;;;;;;3.60;1.07;;;7.90;99.90;;;;;;5013772;28;20264;-88
2021/12/29 05:55:12;;;;;;;7.37;1.10;;;7.90;99.90;;;;;;5030116;28;20179;-87
2021/12/29 05:57:39;;;;;;;7.17;1.13;;;7.90;99.90;;;;;;5013892;28;20189;-87
2021/12/29 06:00:08;;;;;;;4.73;1.17;;;7.90;99.90;;;;;;5013720;28;20258;-87
2021/12/29 06:02:33;;;;;;;4.30;1.00;;;7.90;99.90;;;;;;5013551;28;20345;-87
2021/12/29 06:04:59;;;;;;;3.13;1.50;;;7.80;99.90;;;;;;5013853;28;20609;-88
2021/12/29 06:07:25;;;;;;;4.60;0.90;;;7.80;99.90;;;;;;5013457;28;20182;-88
2021/12/29 06:09:51;;;;;;;3.70;1.17;;;7.80;99.90;;;;;;5013286;28;20185;-87
2021/12/29 06:12:17;;;;;;;3.87;1.50;;;7.80;99.90;;;;;;5015215;28;20202;-88
2021/12/29 06:14:44;;;;;;;5.10;1.10;;;7.80;99.90;;;;;;5017378;28;20190;-88
2021/12/29 06:17:14;;;;;;;3.83;1.20;;;7.80;99.90;;;;;;5017421;28;20206;-88
2021/12/29 06:19:40;;;;;;;5.83;1.13;;;7.80;99.90;;;;;;5017087;28;20187;-88
2021/12/29 06:22:10;;;;;;;3.23;1.10;;;7.80;99.90;;;;;;5017258;28;20212;-87
2021/12/29 06:24:41;;;;;;;2.73;1.13;;;7.80;99.90;;;;;;5017470;28;20182;-87
2021/12/29 06:27:08;;;;;;;5.90;1.20;;;7.80;99.90;;;;;;5017435;28;20186;-88
2021/12/29 06:29:34;;;;;;;2.60;0.80;;;7.80;99.90;;;;;;5013733;28;20191;-88
2021/12/29 06:32:00;;;;;;;2.57;1.00;;;7.80;99.90;;;;;;5013716;28;20203;-88
2021/12/29 06:34:27;;;;;;;4.07;1.00;;;7.80;99.90;;;;;;5014917;28;20270;-87
2021/12/29 06:36:53;;;;;;;4.17;1.60;;;7.80;99.90;;;;;;4997295;28;20218;-87
2021/12/29 06:39:19;;;;;;;3.83;0.80;;;7.80;99.90;;;;;;4997289;28;20234;-87
2021/12/29 06:41:45;;;;;;;1.73;0.80;;;7.80;99.90;;;;;;4997248;28;20213;-87
2021/12/29 06:44:11;;;;;;;3.80;0.90;;;7.80;99.90;;;;;;4997186;28;20184;-88
2021/12/29 06:46:37;;;;;;;4.20;1.00;;;7.80;99.90;;;;;;4997474;28;20533;-87
2021/12/29 06:49:03;;;;;;;3.77;1.10;;;7.80;99.90;;;;;;4997068;28;20191;-87
2021/12/29 06:51:29;;;;;;;3.60;1.70;;;7.80;99.90;;;;;;4997264;28;20203;-87
2021/12/29 06:53:55;;;;;;;5.30;2.67;;;7.80;99.90;;;;;;4997151;28;20222;-87
2021/12/29 06:56:21;;;;;;;2.33;1.13;;;7.80;99.90;;;;;;4997399;28;20226;-88
2021/12/29 06:58:47;;;;;;;2.50;1.20;;;7.80;99.90;;;;;;4997373;28;20233;-88
2021/12/29 07:01:16;;;;;;;4.97;1.40;;;7.80;99.90;;;;;;5017036;28;20198;-88
2021/12/29 07:03:43;;;;;;;2.07;0.90;;;7.80;99.90;;;;;;5017146;28;20174;-88
2021/12/29 07:06:08;;;;;;;2.43;1.20;;;7.80;99.90;;;;;;5017011;28;20178;-88
2021/12/29 07:08:34;;;;;;;3.63;1.30;;;7.80;99.90;;;;;;5016890;28;20269;-88
2021/12/29 07:11:01;;;;;;;3.13;1.20;;;7.80;99.90;;;;;;5017083;28;20198;-88
2021/12/29 07:13:27;;;;;;;3.33;1.13;;;7.80;99.90;;;;;;5017021;28;20225;-88
2021/12/29 07:15:53;;;;;;;4.67;1.30;;;7.90;99.90;;;;;;5017292;28;20242;-88
2021/12/29 07:18:18;;;;;;;3.30;1.50;;;7.80;99.90;;;;;;5016689;28;20182;-88
2021/12/29 07:20:44;;;;;;;5.23;2.80;;;7.90;99.90;;;;;;5013394;28;20200;-88
2021/12/29 07:23:11;;;;;;;1.93;1.10;;;7.80;99.90;;;;;;5021618;28;20206;-88
2021/12/29 07:25:37;;;;;;;4.63;1.23;;;7.90;99.90;;;;;;5023980;28;20179;-88
2021/12/29 07:28:04;;;;;;;2.23;1.07;;;7.90;99.90;;;;;;5007465;28;20298;-87
2021/12/29 07:30:30;;;;;;;5.03;1.37;;;7.90;99.90;;;;;;5005881;28;20179;-88
2021/12/29 07:32:56;;;;;;;4.57;1.30;;;7.80;99.90;;;;;;5004865;28;20175;-87
2021/12/29 07:35:24;;;;;;;4.30;1.23;;;7.90;99.90;;;;;;5001063;28;20209;-88
2021/12/29 07:37:50;;;;;;;2.93;1.13;;;7.90;99.90;;;;;;4996482;28;20191;-87
2021/12/29 07:40:16;;;;;;;5.10;1.67;;;7.90;99.90;;;;;;4997717;28;20184;-87
2021/12/29 07:42:44;;;;;;;3.40;1.40;;;7.90;99.90;;;;;;5025132;28;20186;-88
2021/12/29 07:45:11;;;;;;;4.43;1.53;;;7.90;99.90;;;;;;5011688;28;20182;-87
2021/12/29 07:47:46;;;;;;;5.37;1.47;;;7.90;99.90;;;;;;5015843;28;20213;-87
2021/12/29 07:50:15;;;;;;;2.60;1.50;;;7.90;99.90;;;;;;5016024;28;20182;-88
2021/12/29 07:52:40;;;;;;;3.70;1.70;;;7.90;99.90;;;;;;5015410;28;20707;-88
2021/12/29 07:55:07;;;;;;;3.67;1.50;;;7.90;99.90;;;;;;5015590;28;20244;-87
2021/12/29 07:57:33;;;;;;;6.23;3.07;;;7.90;99.90;;;;;;5032013;28;20195;-88
2021/12/29 07:59:59;;;;;;;3.77;2.00;;;7.90;99.90;;;;;;5015516;28;20230;-87
2021/12/29 08:02:27;;;;;;;3.00;1.90;;;7.90;99.90;;;;;;5015230;28;20205;-87
2021/12/29 08:04:54;;;;;;;5.93;2.10;;;8.00;99.90;;;;;;5015659;28;20185;-87
2021/12/29 08:07:21;;;;;;;3.90;2.00;;;8.00;99.90;;;;;;5013055;28;20297;-87
2021/12/29 08:09:48;;;;;;;3.93;1.80;;;8.00;99.90;;;;;;4996010;28;20187;-87
2021/12/29 08:12:14;;;;;;;2.60;1.20;;;8.00;99.90;;;;;;4995927;28;20279;-87
2021/12/29 08:14:40;;;;;;;1.80;1.00;;;8.10;99.90;;;;;;5009197;28;20186;-90
2021/12/29 08:17:07;;;;;;;3.80;0.90;;;8.10;99.90;;;;;;5015531;28;20287;-88
2021/12/29 08:19:33;;;;;;;4.57;1.20;;;8.10;99.90;;;;;;5014954;28;20233;-87
2021/12/29 08:21:59;;;;;;;2.77;1.03;;;8.10;99.90;;;;;;5014786;28;20199;-87
2021/12/29 08:24:25;;;;;;;2.43;1.20;;;8.10;99.90;;;;;;5015187;28;20197;-88
2021/12/29 08:26:51;;;;;;;4.70;1.37;;;8.10;99.90;;;;;;5016372;28;20270;-87
2021/12/29 08:29:21;;;;;;;6.20;2.30;;;8.10;99.90;;;;;;5013014;28;20213;-88
2021/12/29 08:31:47;;;;;;;7.43;2.93;;;8.10;99.90;;;;;;5011408;28;20238;-87
2021/12/29 08:34:15;;;;;;;6.20;2.17;;;8.10;99.90;;;;;;5013034;28;20197;-87
2021/12/29 08:36:41;;;;;;;4.80;1.80;;;8.20;99.90;;;;;;5014430;28;20217;-87
2021/12/29 08:39:08;;;;;;;2.33;1.40;;;8.20;99.90;;;;;;5014570;28;20182;-87
2021/12/29 08:41:34;;;;;;;5.50;2.00;;;8.20;99.90;;;;;;5007613;28;20196;-87
2021/12/29 08:44:00;;;;;;;4.67;2.00;;;8.20;99.90;;;;;;5003432;28;20175;-87
2021/12/29 08:46:31;;;;;;;5.07;1.73;;;8.30;99.90;;;;;;5004619;28;20186;-87
2021/12/29 08:48:58;;;;;;;3.40;1.47;;;8.30;99.90;;;;;;5003033;28;20193;-87
2021/12/29 08:51:24;;;;;;;3.30;1.43;;;8.30;99.90;;;;;;5004691;28;20218;-87
2021/12/29 08:53:50;;;;;;;3.60;1.47;;;8.40;99.90;;;;;;5005178;28;20183;-87
2021/12/29 08:56:16;;;;;;;3.47;1.33;;;8.40;99.90;;;;;;5018456;28;20203;-89
2021/12/29 08:58:46;;;;;;;6.70;1.27;;;8.40;99.90;;;;;;5031268;28;20178;-88
2021/12/29 09:01:12;;;;;;;3.77;1.40;;;8.50;99.90;;;;;;4993803;28;20326;-88
2021/12/29 09:03:38;;;;;;;2.97;1.50;;;8.50;99.90;;;;;;4994651;28;20175;-88
2021/12/29 09:06:04;;;;;;;5.63;1.50;;;8.50;99.90;;;;;;5025409;28;20186;-88
2021/12/29 09:08:31;;;;;;;4.67;1.60;;;8.60;99.90;;;;;;5026586;28;20183;-88
2021/12/29 09:10:57;;;;;;;3.20;1.60;;;8.60;99.90;;;;;;5027188;28;20210;-87
2021/12/29 09:13:23;;;;;;;5.03;1.70;;;8.60;99.90;;;;;;5027112;28;20179;-87
2021/12/29 09:15:53;;;;;;;4.67;1.83;;;8.60;99.90;;;;;;5010599;28;20202;-87
2021/12/29 09:18:20;;;;;;;3.20;1.67;;;8.70;99.90;;;;;;5026977;28;20550;-88
2021/12/29 09:20:47;;;;;;;4.47;2.17;;;8.60;99.90;;;;;;5010864;28;20195;-88
2021/12/29 09:23:14;;;;;;;6.00;2.43;;;8.70;99.90;;;;;;5010926;28;20175;-87
2021/12/29 09:25:43;;;;;;;7.73;3.30;;;8.70;99.90;;;;;;5027402;28;20205;-88
2021/12/29 09:28:11;;;;;;;8.50;3.20;;;8.70;99.90;;;;;;4994312;28;20179;-88
2021/12/29 09:30:39;;;;;;;5.90;2.97;;;8.70;99.90;;;;;;5026413;28;20206;-88
2021/12/29 09:33:07;;;;;;;5.93;2.40;;;8.70;99.90;;;;;;5014340;28;20186;-88
2021/12/29 09:35:33;;;;;;;6.70;2.37;;;8.80;99.90;;;;;;5006322;28;20299;-88
2021/12/29 09:38:00;;;;;;;5.60;2.00;;;8.80;99.90;;;;;;5004621;28;20185;-88
2021/12/29 09:40:26;;;;;;;6.37;2.70;;;8.80;99.90;;;;;;5004864;28;20182;-88
2021/12/29 09:42:55;;;;;;;5.33;2.27;;;8.80;99.90;;;;;;5002714;28;20237;-88
2021/12/29 09:45:21;;;;;;;5.27;1.90;;;8.90;99.90;;;;;;5001408;28;20167;-88
2021/12/29 09:47:47;;;;;;;8.10;2.80;;;8.90;99.90;;;;;;5006885;28;20175;-88
2021/12/29 09:50:16;;;;;;;6.20;2.20;;;8.90;99.90;;;;;;5006594;28;20179;-87
2021/12/29 09:52:42;;;;;;;5.13;2.17;;;8.90;99.90;;;;;;5004726;28;20179;-87
2021/12/29 09:55:12;;;;;;;6.20;2.40;;;8.90;99.90;;;;;;5008893;28;20254;-88
2021/12/29 09:57:44;;;;;;;4.43;1.70;;;8.90;99.90;;;;;;5023787;28;20242;-84
2021/12/29 10:00:19;;;;;;;6.03;2.07;;;8.90;99.90;;;;;;5005533;28;20183;-88
2021/12/29 10:02:45;;;;;;;4.30;1.97;;;8.90;99.90;;;;;;5009448;28;20218;-88
2021/12/29 10:05:11;;;;;;;6.33;2.27;;;9.00;99.90;;;;;;5013542;28;20197;-87
2021/12/29 10:07:37;;;;;;;4.77;2.50;;;9.00;99.90;;;;;;5019462;28;20186;-87
2021/12/29 10:10:18;;;;;;;5.70;2.83;;;9.00;99.90;;;;;;5006157;28;20587;-87
2021/12/29 10:12:45;;;;;;;9.73;3.60;;;9.00;99.90;;;;;;5014075;28;20201;-87
2021/12/29 10:15:11;;;;;;;9.27;3.20;;;9.10;99.90;;;;;;5018351;28;20192;-86
2021/12/29 10:17:37;;;;;;;10.67;3.50;;;9.10;99.90;;;;;;5018847;28;20174;-87
2021/12/29 10:20:22;;;;;;;10.40;3.90;;;9.10;99.90;;;;;;5018853;28;20178;-87
2021/12/29 10:22:58;;;;;;;10.90;3.73;;;9.10;99.90;;;;;;5019253;28;20170;-87
2021/12/29 10:25:32;;;;;;;8.60;3.00;;;9.20;99.90;;;;;;5009141;28;20170;-93
2021/12/29 10:27:59;;;;;;;5.13;1.87;;;9.20;99.90;;;;;;5012818;28;20187;-87
2021/12/29 10:30:29;;;;;;;6.60;2.73;;;9.20;99.90;;;;;;5012393;28;20186;-88
2021/12/29 10:33:07;;;;;;;6.77;2.83;;;9.20;99.90;;;;;;5015155;28;20195;-87
2021/12/29 10:35:33;;;;;;;3.87;1.70;;;9.20;99.90;;;;;;5009731;28;20205;-87
2021/12/29 10:38:18;;;;;;;7.67;1.30;;;9.20;99.90;;;;;;5009086;28;20178;-87
2021/12/29 10:40:44;;;;;;;8.33;2.80;;;9.20;99.90;;;;;;5006358;28;20202;-87
2021/12/29 10:43:12;;;;;;;4.50;2.20;;;9.20;99.90;;;;;;5006374;28;20224;-87
2021/12/29 10:45:41;;;;;;;3.87;1.63;;;9.20;99.90;;;;;;5009209;28;20243;-87
2021/12/29 10:48:21;;;;;;;3.43;1.50;;;9.20;99.90;;;;;;5018612;28;20696;-87
2021/12/29 10:51:14;;;;;;;6.87;1.93;;;9.20;99.90;;;;;;5018809;28;20214;-87
2021/12/29 10:53:40;;;;;;;3.97;1.87;;;9.20;99.90;;;;;;5012726;28;20194;-87
2021/12/29 10:56:17;;;;;;;3.70;1.73;;;9.20;99.90;;;;;;5029996;28;20203;-87
2021/12/29 10:58:43;;;;;;;3.00;1.90;;;9.10;99.90;;;;;;5034306;28;20162;-87
2021/12/29 11:01:12;;;;;;;6.27;2.57;;;9.10;99.90;;;;;;5035059;28;20199;-87
2021/12/29 11:03:50;;;;;;;5.43;2.20;;;9.20;99.90;;;;;;5035163;28;20185;-87
2021/12/29 11:06:19;;;;;;;4.60;3.00;;;9.10;99.90;;;;;;5035408;28;20198;-87
2021/12/29 11:09:03;;;;;;;5.97;3.17;;;9.20;99.90;;;;;;5035659;28;20186;-87
2021/12/29 11:11:36;;;;;;;6.93;3.60;;;9.20;99.90;;;;;;5018311;28;20195;-87
2021/12/29 11:14:18;;;;;;;7.47;3.90;;;9.20;99.90;;;;;;5034740;28;20190;-87
2021/12/29 11:16:47;;;;;;;11.67;4.10;;;9.20;99.90;;;;;;5033492;28;20238;-87
2021/12/29 11:19:13;;;;;;;5.57;2.57;;;9.20;99.90;;;;;;5017193;28;20179;-87
2021/12/29 11:21:42;;;;;;;6.90;4.10;;;9.20;99.90;;;;;;5018082;28;20205;-88
2021/12/29 11:24:23;;;;;;;9.50;4.93;;;9.30;99.90;;;;;;5018009;28;20179;-87
2021/12/29 11:26:50;;;;;;;13.37;6.73;;;9.30;99.90;;;;;;4998345;28;20210;-87
2021/12/29 11:29:20;;;;;;;11.57;7.07;;;9.30;99.90;;;;;;5009511;28;20195;-87
2021/12/29 11:31:49;;;;;;;8.10;3.33;;;9.30;99.90;;;;;;5017589;28;20254;-86
2021/12/29 11:34:18;;;;;;;7.33;2.50;;;9.30;99.90;;;;;;5017650;28;20187;-88
2021/12/29 11:36:58;;;;;;;7.40;2.43;;;9.30;99.90;;;;;;5016913;28;20268;-87
2021/12/29 11:39:46;;;;;;;4.67;2.00;;;9.30;99.90;;;;;;5016970;28;20171;-87
2021/12/29 11:42:13;;;;;;;4.23;1.80;;;9.30;99.90;;;;;;5017374;28;20190;-87
2021/12/29 11:44:39;;;;;;;4.23;1.80;;;9.30;99.90;;;;;;5017136;28;20182;-87
2021/12/29 11:47:07;;;;;;;5.50;1.87;;;9.30;99.90;;;;;;5017328;28;20228;-87
2021/12/29 11:49:34;;;;;;;4.30;2.10;;;9.30;99.90;;;;;;5002745;28;20187;-88
2021/12/29 11:52:10;;;;;;;4.53;2.00;;;9.30;99.90;;;;;;5001949;28;20214;-88
2021/12/29 11:54:59;;;;;;;5.17;1.87;;;9.30;99.90;;;;;;4997695;28;20188;-88
2021/12/29 11:57:27;;;;;;;9.43;2.67;;;9.30;99.90;;;;;;4997789;28;20210;-88
2021/12/29 12:00:05;;;;;;;8.50;2.63;;;9.30;99.90;;;;;;5006794;28;20277;-87
2021/12/29 12:02:37;;;;;;;7.07;2.50;;;9.30;99.90;;;;;;5033390;28;20201;-88
2021/12/29 12:05:05;;;;;;;4.47;2.33;;;9.30;99.90;;;;;;5016941;28;20176;-88
2021/12/29 12:07:32;;;;;;;6.40;2.03;;;9.30;99.90;;;;;;5017477;28;20190;-88
2021/12/29 12:10:01;;;;;;;6.17;3.00;;;9.30;99.90;;;;;;5015645;28;20183;-88
2021/12/29 12:12:39;;;;;;;3.30;1.90;;;9.40;99.90;;;;;;5016982;28;20226;-88
2021/12/29 12:15:07;;;;;;;6.93;2.20;;;9.40;99.90;;;;;;5016987;28;20194;-87
2021/12/29 12:17:33;;;;;;;5.30;2.07;;;9.40;99.90;;;;;;5016657;28;20232;-88
2021/12/29 12:20:07;;;;;;;7.87;3.23;;;9.40;99.90;;;;;;5016406;28;20184;-88
2021/12/29 12:22:48;;;;;;;3.80;2.10;;;9.40;99.90;;;;;;5013692;28;20448;-87
2021/12/29 12:25:25;;;;;;;5.73;1.87;;;9.50;99.90;;;;;;5016684;28;20193;-87
2021/12/29 12:27:53;;;;;;;4.77;1.90;;;9.50;99.90;;;;;;5016874;28;20212;-87
2021/12/29 12:30:25;;;;;;;6.90;2.00;;;9.50;99.90;;;;;;5016286;28;20245;-88
2021/12/29 12:32:53;;;;;;;7.23;2.37;;;9.50;99.90;;;;;;5016436;28;20182;-88
2021/12/29 12:35:32;;;;;;;6.70;1.73;;;9.50;99.90;;;;;;5016442;28;20269;-88
2021/12/29 12:38:11;;;;;;;6.37;2.47;;;9.60;99.90;;;;;;5016134;28;20179;-87
2021/12/29 12:40:37;;;;;;;4.30;1.50;;;9.60;99.90;;;;;;5016891;28;20257;-87
2021/12/29 12:43:13;;;;;;;6.93;3.73;;;9.70;99.90;;;;;;5016213;28;20178;-88
2021/12/29 12:45:41;;;;;;;7.77;4.00;;;9.70;99.90;;;;;;5016344;28;20178;-88
2021/12/29 12:48:13;;;;;;;9.50;4.60;;;9.60;99.90;;;;;;5004184;28;20709;-87
2021/12/29 12:50:46;;;;;;;7.70;4.77;;;9.60;99.90;;;;;;5025356;28;20241;-88
2021/12/29 12:53:16;;;;;;;12.77;5.77;;;9.70;99.90;;;;;;5012502;28;20186;-87
2021/12/29 12:55:49;;;;;;;13.27;7.53;;;9.60;99.90;;;;;;5010805;28;20257;-87
2021/12/29 12:58:17;;;;;;;4.60;2.40;;;9.70;99.90;;;;;;5011206;28;20183;-87
2021/12/29 13:01:00;;;;;;;5.63;2.17;;;9.60;99.90;;;;;;4997541;28;20230;-87
2021/12/29 13:03:33;;;;;;;4.83;1.47;;;9.70;99.90;;;;;;5012969;28;20237;-87
2021/12/29 13:06:02;;;;;;;5.20;1.97;;;9.70;99.90;;;;;;5011581;28;20661;-88
2021/12/29 13:08:35;;;;;;;3.20;1.20;;;9.70;99.90;;;;;;5026828;28;20207;-88